createdAt,value
2022-09-26T00:01:47.706Z,100071.03
2022-09-26T00:05:11.485Z,100064.13
2022-09-26T00:08:35.470Z,100065.16
2022-09-26T00:11:57.990Z,100068.59
2022-09-26T00:15:19.960Z,100066.84
2022-09-26T00:18:42.357Z,100073.84
2022-09-26T00:22:04.339Z,100070.47
2022-09-26T00:25:27.759Z,100077.41
2022-09-26T00:28:50.175Z,100070.56
2022-09-26T00:32:13.213Z,100067.25
2022-09-26T00:35:34.986Z,100067.38
2022-09-26T00:38:57.399Z,100061.34
2022-09-26T00:42:25.231Z,100069.97
2022-09-26T00:45:47.470Z,100053.91
2022-09-26T00:49:23.196Z,100059.72
2022-09-26T00:52:50.148Z,100064.09
2022-09-26T00:56:16.581Z,100056.50
2022-09-26T00:59:44.566Z,100052.25
2022-09-26T01:03:06.782Z,100052.34
2022-09-26T01:06:29.289Z,100044.91
2022-09-26T01:09:55.490Z,100063.97
2022-09-26T01:13:18.316Z,100051.13
2022-09-26T01:16:45.987Z,100061.59
2022-09-26T01:20:31.703Z,100048.84
2022-09-26T01:24:26.867Z,100044.03
2022-09-26T01:28:01.776Z,100055.16
2022-09-26T01:31:36.669Z,100057.03
2022-09-26T01:35:06.937Z,100046.03
2022-09-26T01:38:42.237Z,100062.44
2022-09-26T01:42:14.581Z,100057.41
2022-09-26T01:45:48.122Z,100052.25
2022-09-26T01:49:18.026Z,100045.41
2022-09-26T01:52:43.089Z,100008.31
2022-09-26T01:56:11.021Z,100040.25
2022-09-26T01:59:39.240Z,100040.31
2022-09-26T02:03:02.761Z,100043.78
2022-09-26T02:06:33.972Z,100053.19
2022-09-26T02:10:00.972Z,100051.41
2022-09-26T02:13:26.800Z,100048.75
2022-09-26T02:16:51.493Z,100048.66
2022-09-26T02:20:19.626Z,100050.38
2022-09-26T02:23:43.349Z,100040.84
2022-09-26T02:27:06.968Z,100036.38
2022-09-26T02:30:30.157Z,100037.16
2022-09-26T02:33:53.275Z,100037.84
2022-09-26T02:37:17.120Z,100033.47
2022-09-26T02:40:49.206Z,100032.66
2022-09-26T02:44:25.814Z,100040.28
2022-09-26T02:48:15.813Z,100037.63
2022-09-26T02:51:57.528Z,100031.44
2022-09-26T02:55:23.280Z,100008.28
2022-09-26T02:58:53.975Z,100020.75
2022-09-26T03:02:18.842Z,100023.31
2022-09-26T03:05:43.801Z,100027.56
2022-09-26T03:09:07.113Z,100019.06
2022-09-26T03:12:32.582Z,100017.31
2022-09-26T03:16:00.083Z,100019.78
2022-09-26T03:19:29.644Z,100023.13
2022-09-26T03:22:52.064Z,100019.66
2022-09-26T03:26:17.165Z,100007.13
2022-09-26T03:29:39.317Z,100017.94
2022-09-26T03:33:03.493Z,100017.84
2022-09-26T03:36:26.093Z,100012.66
2022-09-26T03:39:48.269Z,100014.25
2022-09-26T03:43:11.017Z,99970.13
2022-09-26T03:46:36.252Z,100004.66
2022-09-26T03:50:03.380Z,100006.31
2022-09-26T03:53:25.529Z,100008.75
2022-09-26T03:56:47.461Z,100000.00
2022-09-26T04:00:10.713Z,100000.88
2022-09-26T04:03:35.543Z,99999.78
2022-09-26T04:06:59.420Z,99994.59
2022-09-26T04:10:24.435Z,99999.00
2022-09-26T04:13:51.830Z,100010.06
2022-09-26T04:17:14.980Z,99997.97
2022-09-26T04:20:36.953Z,99993.66
2022-09-26T04:24:00.191Z,100001.38
2022-09-26T04:27:22.410Z,100004.06
2022-09-26T04:30:44.463Z,100003.94
2022-09-26T04:34:06.815Z,100009.84
2022-09-26T04:37:28.656Z,100002.88
2022-09-26T04:40:51.960Z,100010.25
2022-09-26T04:44:15.334Z,100008.34
2022-09-26T04:47:37.267Z,100020.22
2022-09-26T04:50:59.146Z,100016.53
2022-09-26T04:54:21.086Z,100020.66
2022-09-26T04:57:44.350Z,100000.06
2022-09-26T05:01:08.240Z,100021.31
2022-09-26T05:04:33.203Z,100018.66
2022-09-26T05:07:55.328Z,100019.69
2022-09-26T05:11:18.514Z,100023.97
2022-09-26T05:14:42.226Z,100014.72
2022-09-26T05:18:04.272Z,100023.91
2022-09-26T05:21:26.260Z,100023.84
2022-09-26T05:25:05.759Z,100029.03
2022-09-26T05:28:28.138Z,100026.44
2022-09-26T05:31:54.278Z,100018.66
2022-09-26T05:35:16.479Z,100028.69
2022-09-26T05:38:38.274Z,100025.00
2022-09-26T05:41:59.989Z,100030.06
2022-09-26T05:45:22.134Z,100023.91
2022-09-26T05:48:45.666Z,100019.34
2022-09-26T05:52:07.858Z,100019.06
2022-09-26T05:55:31.537Z,100016.94
2022-09-26T05:58:55.180Z,100017.28
2022-09-26T06:02:20.737Z,100013.34
2022-09-26T06:05:44.750Z,100003.56
2022-09-26T06:09:07.562Z,99985.25
2022-09-26T06:12:29.611Z,100011.94
2022-09-26T06:15:52.237Z,100005.16
2022-09-26T06:19:14.453Z,100012.00
2022-09-26T06:22:42.077Z,100013.81
2022-09-26T06:26:05.208Z,100017.47
2022-09-26T06:29:30.362Z,100019.25
2022-09-26T06:32:53.241Z,100020.09
2022-09-26T06:36:15.092Z,100023.31
2022-09-26T06:39:38.255Z,100023.91
2022-09-26T06:43:00.366Z,100029.00
2022-09-26T06:46:22.722Z,100031.63
2022-09-26T06:49:47.784Z,100028.53
2022-09-26T06:53:09.739Z,100028.22
2022-09-26T06:56:33.344Z,100025.31
2022-09-26T06:59:55.330Z,100023.78
2022-09-26T07:03:17.192Z,100011.19
2022-09-26T07:06:39.149Z,100034.59
2022-09-26T07:10:01.492Z,100036.72
2022-09-26T07:13:24.863Z,100036.38
2022-09-26T07:16:49.305Z,100030.78
2022-09-26T07:20:12.373Z,100033.66
2022-09-26T07:23:34.340Z,100036.59
2022-09-26T07:26:56.464Z,100035.19
2022-09-26T07:30:20.712Z,100037.31
2022-09-26T07:33:42.709Z,100042.66
2022-09-26T07:37:04.651Z,100036.72
2022-09-26T07:40:26.671Z,100018.34
2022-09-26T07:47:52.624Z,100019.00
2022-09-26T07:51:14.834Z,100043.94
2022-09-26T07:54:37.054Z,100047.97
2022-09-26T07:57:59.478Z,100043.34
2022-09-26T08:01:21.357Z,100048.69
2022-09-26T08:04:44.610Z,100043.88
2022-09-26T08:08:06.189Z,100041.91
2022-09-26T08:11:28.531Z,100043.50
2022-09-26T08:14:51.453Z,100040.81
2022-09-26T08:18:13.488Z,100043.81
2022-09-26T08:21:36.922Z,100028.38
2022-09-26T08:25:00.497Z,100039.72
2022-09-26T08:28:22.673Z,100045.25
2022-09-26T08:31:46.301Z,100037.69
2022-09-26T08:35:12.247Z,100011.47
2022-09-26T08:39:35.540Z,100020.66
2022-09-26T08:43:07.553Z,100030.19
2022-09-26T08:46:49.068Z,100037.84
2022-09-26T08:50:19.024Z,100039.59
2022-09-26T08:53:54.009Z,100045.94
2022-09-26T08:57:20.755Z,100047.41
2022-09-26T09:00:44.992Z,100040.03
2022-09-26T09:04:14.768Z,100027.47
2022-09-26T09:07:36.914Z,100036.53
2022-09-26T09:11:06.486Z,100036.44
2022-09-26T09:14:43.782Z,100030.88
2022-09-26T09:18:19.145Z,100043.44
2022-09-26T09:21:52.752Z,100035.00
2022-09-26T09:25:21.107Z,100039.31
2022-09-26T09:29:10.061Z,100036.06
2022-09-26T09:32:42.217Z,100035.66
2022-09-26T09:36:10.350Z,100044.06
2022-09-26T09:39:36.651Z,100039.72
2022-09-26T09:43:04.284Z,100039.78
2022-09-26T09:46:29.360Z,100033.34
2022-09-26T09:49:52.886Z,100038.41
2022-09-26T09:53:33.274Z,100026.94
2022-09-26T10:22:33.346Z,100021.88
2022-09-26T10:26:00.745Z,100027.09
2022-09-26T10:29:25.961Z,100032.78
2022-09-26T10:32:56.309Z,100019.34
2022-09-26T10:36:21.017Z,100037.25
2022-09-26T10:40:16.265Z,100033.78
2022-09-26T10:43:39.388Z,100027.91
2022-09-26T10:47:08.303Z,100033.03
2022-09-26T10:50:32.660Z,100033.03
2022-09-26T10:54:00.032Z,100036.19
2022-09-26T10:57:29.661Z,100043.03
2022-09-26T11:00:52.496Z,100037.94
2022-09-26T11:04:36.410Z,100047.84
2022-09-26T11:07:58.552Z,100035.53
2022-09-26T11:11:22.464Z,100030.50
2022-09-26T11:14:47.148Z,100037.34
2022-09-26T11:18:20.596Z,100035.53
2022-09-26T11:21:47.625Z,100034.09
2022-09-26T11:25:17.310Z,100031.66
2022-09-26T11:28:45.385Z,100033.66
2022-09-26T11:32:14.803Z,100018.97
2022-09-26T11:35:44.134Z,100025.66
2022-09-26T11:39:20.254Z,100015.97
2022-09-26T11:42:55.636Z,100013.47
2022-09-26T11:46:36.123Z,100012.41
2022-09-26T11:50:14.923Z,100012.41
2022-09-26T11:53:49.485Z,100006.31
2022-09-26T11:57:29.779Z,100024.06
2022-09-26T12:00:58.169Z,100012.59
2022-09-26T12:04:45.257Z,100015.56
2022-09-26T12:08:23.663Z,100007.78
2022-09-26T12:11:59.371Z,100014.94
2022-09-26T12:15:24.627Z,100018.53
2022-09-26T12:18:58.013Z,100011.34
2022-09-26T12:22:31.071Z,100014.38
2022-09-26T12:26:08.789Z,100001.56
2022-09-26T12:29:38.695Z,100008.94
2022-09-26T12:33:21.585Z,100008.00
2022-09-26T12:37:01.967Z,99994.34
2022-09-26T12:40:34.275Z,100010.72
2022-09-26T12:44:27.331Z,100002.31
2022-09-26T12:48:03.970Z,100005.81
2022-09-26T12:51:37.601Z,100019.97
2022-09-26T12:55:24.398Z,100022.38
2022-09-26T12:59:04.672Z,100022.38
2022-09-26T13:03:05.184Z,100023.34
2022-09-26T13:07:18.900Z,100026.59
2022-09-26T13:10:57.828Z,100019.53
2022-09-26T13:14:35.071Z,100022.91
2022-09-26T13:18:04.298Z,100000.13
2022-09-26T13:26:26.255Z,100012.16
2022-09-26T13:29:55.145Z,100013.97
2022-09-26T13:33:24.262Z,100016.59
2022-09-26T13:36:47.581Z,99998.41
2022-09-26T13:40:22.610Z,100015.50
2022-09-26T13:43:55.753Z,100003.97
2022-09-26T13:47:27.205Z,100009.25
2022-09-26T13:50:55.747Z,100017.22
2022-09-26T13:54:27.127Z,99997.78
2022-09-26T13:58:05.424Z,100014.81
2022-09-26T14:01:28.979Z,100011.34
2022-09-26T14:04:51.668Z,99999.59
2022-09-26T14:08:50.181Z,100003.41
2022-09-26T14:12:21.092Z,100015.59
2022-09-26T14:16:03.364Z,100020.19
2022-09-26T14:19:36.361Z,100014.31
2022-09-26T14:22:58.843Z,100007.69
2022-09-26T14:26:23.672Z,100016.19
2022-09-26T14:29:51.654Z,99999.38
2022-09-26T14:33:15.369Z,99998.03
2022-09-26T14:36:37.739Z,100009.78
2022-09-26T14:40:30.300Z,100016.72
2022-09-26T14:43:53.884Z,100014.44
2022-09-26T14:47:17.517Z,100002.13
2022-09-26T14:50:48.948Z,100025.47
2022-09-26T14:54:23.209Z,100025.16
2022-09-26T14:57:47.368Z,100013.59
2022-09-26T15:01:18.143Z,100034.31
2022-09-26T15:04:41.328Z,100028.72
2022-09-26T15:08:03.805Z,100036.06
2022-09-26T15:11:33.150Z,100034.69
2022-09-26T15:15:05.458Z,100020.84
2022-09-26T15:18:37.447Z,100025.22
2022-09-26T15:22:03.937Z,100020.91
2022-09-26T15:25:31.814Z,100034.97
2022-09-26T15:28:57.293Z,100031.19
2022-09-26T15:32:26.425Z,100038.50
2022-09-26T15:35:56.420Z,100033.66
2022-09-26T15:39:43.153Z,100023.97
2022-09-26T15:43:12.305Z,100030.72
2022-09-26T15:46:34.692Z,100035.06
2022-09-26T15:50:15.921Z,100029.75
2022-09-26T15:53:43.461Z,100031.19
2022-09-26T15:57:08.221Z,100030.09
2022-09-26T16:00:34.327Z,100029.06
2022-09-26T16:03:58.809Z,100011.88
2022-09-26T16:07:25.003Z,100021.66
2022-09-26T16:10:55.465Z,100029.06
2022-09-26T16:14:31.249Z,100033.78
2022-09-26T16:17:54.588Z,100031.91
2022-09-26T16:21:19.398Z,100039.94
2022-09-26T16:24:41.570Z,100026.72
2022-09-26T16:28:23.836Z,100049.84
2022-09-26T16:31:47.725Z,100046.63
2022-09-26T16:35:19.754Z,100044.31
2022-09-26T16:38:41.959Z,100052.41
2022-09-26T16:42:06.028Z,100047.53
2022-09-26T16:45:29.599Z,100045.41
2022-09-26T16:48:55.301Z,100046.66
2022-09-26T16:52:28.577Z,100053.19
2022-09-26T16:55:50.550Z,100048.31
2022-09-26T16:59:17.697Z,100054.75
2022-09-26T17:02:40.846Z,100057.50
2022-09-26T17:06:03.020Z,100053.47
2022-09-26T17:09:28.382Z,100058.09
2022-09-26T17:12:53.448Z,100062.78
2022-09-26T17:16:15.513Z,100055.34
2022-09-26T17:19:41.283Z,100039.56
2022-09-26T17:23:22.000Z,100051.81
2022-09-26T17:26:51.130Z,100068.28
2022-09-26T17:30:18.166Z,100053.16
2022-09-26T17:33:42.899Z,100060.34
2022-09-26T17:37:06.271Z,100067.09
2022-09-26T17:40:31.056Z,100063.13
2022-09-26T17:43:58.742Z,100074.06
2022-09-26T17:47:28.669Z,100076.63
2022-09-26T17:50:50.406Z,100075.84
2022-09-26T17:54:20.506Z,100042.09
2022-09-26T17:57:42.977Z,100073.34
2022-09-26T18:01:06.583Z,100077.63
2022-09-26T18:04:30.532Z,100073.34
2022-09-26T18:07:54.684Z,100076.97
2022-09-26T18:11:19.967Z,100081.50
2022-09-26T18:14:42.893Z,100066.50
2022-09-26T18:18:05.382Z,100080.31
2022-09-26T18:21:27.531Z,100083.03
2022-09-26T18:24:52.516Z,100092.81
2022-09-26T18:28:19.375Z,100080.97
2022-09-26T18:31:42.960Z,100066.56
2022-09-26T18:35:04.833Z,100075.41
2022-09-26T18:38:26.979Z,100070.56
2022-09-26T18:41:59.983Z,100064.09
2022-09-26T18:45:28.808Z,100061.09
2022-09-26T18:48:51.941Z,100062.13
2022-09-26T18:52:18.144Z,100067.34
2022-09-26T18:55:57.980Z,100069.50
2022-09-26T18:59:20.593Z,100071.34
2022-09-26T19:02:45.410Z,100068.09
2022-09-26T19:06:12.323Z,100071.97
2022-09-26T19:09:36.799Z,100061.94
2022-09-26T19:12:59.596Z,100064.53
2022-09-26T19:16:22.855Z,100075.72
2022-09-26T19:19:46.612Z,100076.72
2022-09-26T19:23:10.670Z,100070.00
2022-09-26T19:26:37.878Z,100053.34
2022-09-26T19:30:03.075Z,100065.16
2022-09-26T19:33:26.086Z,100046.91
2022-09-26T19:36:52.508Z,100071.69
2022-09-26T19:40:15.868Z,100069.38
2022-09-26T19:43:38.087Z,100079.97
2022-09-26T19:47:00.032Z,100077.59
2022-09-26T19:50:24.486Z,100079.41
2022-09-26T19:53:47.730Z,100077.81
2022-09-26T19:57:15.175Z,100073.72
2022-09-26T20:00:41.637Z,100076.53
2022-09-26T20:04:03.652Z,100081.75
2022-09-26T20:07:25.931Z,100084.59
2022-09-26T20:10:49.928Z,100063.59
2022-09-26T20:14:27.333Z,100081.56
2022-09-26T20:17:49.906Z,100090.56
2022-09-26T20:21:14.764Z,100088.16
2022-09-26T20:24:39.648Z,100088.44
2022-09-26T20:28:04.502Z,100083.47
2022-09-26T20:31:28.603Z,100084.66
2022-09-26T20:34:50.534Z,100087.50
2022-09-26T20:38:17.922Z,100084.25
2022-09-26T20:41:42.066Z,100044.63
2022-09-26T20:45:06.412Z,100081.97
2022-09-26T20:48:29.822Z,100090.84
2022-09-26T20:51:53.871Z,100083.41
2022-09-26T20:55:18.060Z,100093.09
2022-09-26T20:58:41.815Z,100084.66
2022-09-26T21:02:24.727Z,100091.63
2022-09-26T21:05:47.153Z,100095.28
2022-09-26T21:09:15.911Z,100089.44
2022-09-26T21:12:37.887Z,100085.22
2022-09-26T21:16:00.737Z,100081.97
2022-09-26T21:19:25.456Z,100092.53
2022-09-26T21:22:47.613Z,100081.59
2022-09-26T21:26:17.293Z,100101.44
2022-09-26T21:29:39.392Z,100100.66
2022-09-26T21:33:01.647Z,100091.31
2022-09-26T21:36:30.471Z,100072.81
2022-09-26T21:39:56.047Z,100099.38
2022-09-26T21:43:21.760Z,100093.38
2022-09-26T21:46:43.716Z,100088.44
2022-09-26T21:50:06.440Z,100094.63
2022-09-26T21:53:34.679Z,100087.03
2022-09-26T21:56:59.728Z,100096.59
2022-09-26T22:00:23.087Z,100089.69
2022-09-26T22:03:45.085Z,100074.34
2022-09-26T22:07:07.940Z,100092.38
2022-09-26T22:10:31.436Z,100072.13
2022-09-26T22:13:54.186Z,100090.97
2022-09-26T22:17:16.280Z,100066.44
2022-09-26T22:20:38.302Z,100089.38
2022-09-26T22:24:00.222Z,100090.34
2022-09-26T22:27:23.643Z,100090.56
2022-09-26T22:30:45.923Z,100084.63
2022-09-26T22:34:07.645Z,100088.09
2022-09-26T22:37:29.735Z,100078.06
2022-09-26T22:40:57.319Z,100090.03
2022-09-26T22:58:04.925Z,100080.25
2022-09-26T23:01:29.442Z,100087.88
2022-09-26T23:04:52.170Z,100092.34
2022-09-26T23:08:15.126Z,100092.28
2022-09-26T23:11:38.291Z,100094.94
2022-09-26T23:15:02.787Z,100088.97
2022-09-26T23:18:25.648Z,100090.00
2022-09-26T23:21:48.913Z,100090.06
2022-09-26T23:25:13.305Z,100082.44
2022-09-26T23:28:36.366Z,100088.59
2022-09-26T23:32:00.588Z,100063.19
2022-09-26T23:35:23.925Z,100082.69
2022-09-26T23:38:46.988Z,100082.78
2022-09-26T23:42:09.743Z,100067.47
2022-09-26T23:45:32.704Z,100075.16
2022-09-26T23:48:56.896Z,100071.78
2022-09-26T23:52:20.157Z,100075.28
2022-09-26T23:55:43.217Z,100069.44
2022-09-26T23:59:06.491Z,100064.16
